Time;durP1;ratioP1;P1;durP2;ratioP2;P2;SDS_P1;SDS_P2;PMS_P1;PMS_P2;Temp;Humidity;BMP_temperature;BMP_pressure;BME280_temperature;BME280_humidity;BME280_pressure;Samples;Min_cycle;Max_cycle;Signal;HPM_P1;HPM_P2
2021/09/22 00:01:58;;;;;;;35.90;22.58;;;8.00;99.90;;;;;;4992105;28;20089;-73
2021/09/22 00:04:23;;;;;;;33.83;21.33;;;8.10;99.90;;;;;;4990557;28;20034;-73
2021/09/22 00:06:49;;;;;;;35.80;22.60;;;8.00;99.90;;;;;;4992306;28;20105;-72
2021/09/22 00:09:14;;;;;;;38.70;23.27;;;8.00;99.90;;;;;;4992203;28;20109;-73
2021/09/22 00:11:40;;;;;;;31.95;20.65;;;8.00;99.90;;;;;;4992279;28;20098;-73
2021/09/22 00:14:06;;;;;;;29.38;20.40;;;8.00;99.90;;;;;;4995812;28;20033;-72
2021/09/22 00:16:32;;;;;;;34.65;22.40;;;8.00;99.90;;;;;;4993944;28;20030;-73
2021/09/22 00:18:57;;;;;;;30.85;21.77;;;8.00;99.90;;;;;;4994541;28;20382;-72
2021/09/22 00:21:23;;;;;;;31.77;20.75;;;8.10;99.90;;;;;;4997788;28;20038;-72
2021/09/22 00:23:49;;;;;;;31.60;21.38;;;8.10;99.90;;;;;;4993592;28;20050;-72
2021/09/22 00:26:15;;;;;;;30.15;19.88;;;8.00;99.90;;;;;;4991629;28;20448;-72
2021/09/22 00:28:41;;;;;;;27.83;20.30;;;7.90;99.90;;;;;;4991942;28;20034;-72
2021/09/22 00:31:07;;;;;;;30.83;20.05;;;8.00;99.90;;;;;;4995392;28;20768;-73
2021/09/22 00:33:33;;;;;;;30.10;20.50;;;7.90;99.90;;;;;;4995479;28;20033;-72
2021/09/22 00:35:59;;;;;;;26.40;20.13;;;7.90;99.90;;;;;;4991194;28;20782;-72
2021/09/22 00:38:25;;;;;;;26.63;18.55;;;7.90;99.90;;;;;;4991959;28;20034;-72
2021/09/22 00:40:51;;;;;;;26.55;18.63;;;7.90;99.90;;;;;;4991787;28;20390;-72
2021/09/22 00:43:17;;;;;;;27.77;19.20;;;7.90;99.90;;;;;;4995000;28;20030;-73
2021/09/22 00:45:43;;;;;;;31.15;19.85;;;7.90;99.90;;;;;;4994881;28;20037;-72
2021/09/22 00:48:09;;;;;;;30.08;19.98;;;7.90;99.90;;;;;;4995624;28;20037;-73
2021/09/22 00:50:35;;;;;;;32.47;20.67;;;7.90;99.90;;;;;;4995239;28;20026;-72
2021/09/22 00:53:02;;;;;;;29.42;19.52;;;7.90;99.90;;;;;;4995602;28;20023;-72
2021/09/22 00:55:27;;;;;;;31.52;20.08;;;7.80;99.90;;;;;;4993771;28;20365;-72
2021/09/22 00:57:55;;;;;;;35.30;21.17;;;7.80;99.90;;;;;;4994260;28;20022;-73
2021/09/22 01:00:23;;;;;;;35.03;20.70;;;7.80;99.90;;;;;;4995193;28;20023;-73
2021/09/22 01:02:49;;;;;;;34.63;21.33;;;7.80;99.90;;;;;;4996008;28;20465;-73
2021/09/22 01:05:16;;;;;;;32.70;21.40;;;7.80;99.90;;;;;;4996981;28;20035;-73
2021/09/22 01:07:42;;;;;;;33.72;22.65;;;7.80;99.90;;;;;;4995033;28;20030;-73
2021/09/22 01:10:08;;;;;;;42.40;23.30;;;7.70;99.90;;;;;;4995077;28;20085;-74
2021/09/22 01:12:34;;;;;;;33.35;21.48;;;7.70;99.90;;;;;;4995224;28;20030;-73
2021/09/22 01:15:00;;;;;;;34.47;21.42;;;7.70;99.90;;;;;;4994365;28;20027;-73
2021/09/22 01:17:26;;;;;;;32.20;21.30;;;7.70;99.90;;;;;;4995192;28;20022;-74
2021/09/22 01:19:54;;;;;;;36.80;22.25;;;7.80;99.90;;;;;;4994864;28;20026;-73
2021/09/22 01:22:20;;;;;;;37.50;23.13;;;7.70;99.90;;;;;;4994760;28;20022;-74
2021/09/22 01:24:45;;;;;;;32.88;21.98;;;7.70;99.90;;;;;;4994374;28;20026;-74
2021/09/22 01:27:11;;;;;;;33.30;21.42;;;7.70;99.90;;;;;;4994953;28;20473;-73
2021/09/22 01:29:38;;;;;;;32.40;21.10;;;7.70;99.90;;;;;;4994638;28;20029;-74
2021/09/22 01:32:04;;;;;;;33.92;22.15;;;7.60;99.90;;;;;;4994673;28;20227;-74
2021/09/22 01:34:29;;;;;;;34.75;22.17;;;7.60;99.90;;;;;;4993950;28;20547;-75
2021/09/22 01:36:55;;;;;;;32.50;21.67;;;7.60;99.90;;;;;;4994506;28;20110;-74
2021/09/22 01:39:20;;;;;;;30.25;19.90;;;7.60;99.90;;;;;;4994155;28;20101;-75
2021/09/22 01:41:46;;;;;;;30.67;20.20;;;7.60;99.90;;;;;;4993122;28;20030;-72
2021/09/22 01:44:12;;;;;;;27.02;18.85;;;7.50;99.90;;;;;;4994354;28;20031;-72
2021/09/22 01:46:37;;;;;;;30.25;20.08;;;7.60;99.90;;;;;;4993371;28;20110;-72
2021/09/22 01:49:03;;;;;;;35.72;20.40;;;7.60;99.90;;;;;;4993842;28;20486;-72
2021/09/22 01:51:29;;;;;;;29.25;19.90;;;7.50;99.90;;;;;;4994211;28;20477;-73
2021/09/22 01:53:54;;;;;;;34.47;22.55;;;7.50;99.90;;;;;;4993679;28;20046;-74
2021/09/22 01:56:20;;;;;;;31.48;21.45;;;7.50;99.90;;;;;;4993773;28;20054;-72
2021/09/22 01:58:46;;;;;;;35.70;21.10;;;7.50;99.90;;;;;;4994383;28;20397;-72
2021/09/22 02:01:14;;;;;;;32.72;20.70;;;7.50;99.90;;;;;;4992933;28;20080;-73
2021/09/22 02:03:41;;;;;;;31.63;21.08;;;7.40;99.90;;;;;;4994138;28;20499;-73
2021/09/22 02:06:08;;;;;;;31.27;20.63;;;7.50;99.90;;;;;;4993472;28;20039;-74
2021/09/22 02:08:33;;;;;;;32.85;21.65;;;7.40;99.90;;;;;;4994017;28;20033;-72
2021/09/22 02:10:59;;;;;;;31.95;20.00;;;7.40;99.90;;;;;;4995407;28;20026;-74
2021/09/22 02:13:25;;;;;;;38.08;21.20;;;7.40;99.90;;;;;;4996150;28;20497;-74
2021/09/22 02:15:51;;;;;;;29.92;20.67;;;7.40;99.90;;;;;;4993860;28;20026;-73
2021/09/22 02:18:16;;;;;;;35.45;20.70;;;7.40;99.90;;;;;;4994155;28;20022;-73
2021/09/22 02:20:42;;;;;;;29.45;20.77;;;7.40;99.90;;;;;;4993170;28;20046;-73
2021/09/22 02:23:07;;;;;;;32.72;22.55;;;7.40;99.90;;;;;;4993767;28;20034;-74
2021/09/22 02:25:33;;;;;;;35.70;20.63;;;7.40;99.90;;;;;;4992672;28;20041;-73
2021/09/22 02:27:59;;;;;;;32.92;21.05;;;7.30;99.90;;;;;;4993596;28;20034;-72
2021/09/22 02:30:25;;;;;;;35.40;22.08;;;7.20;99.90;;;;;;4992986;28;20053;-73
2021/09/22 02:32:51;;;;;;;27.50;20.05;;;7.10;99.90;;;;;;4993431;28;20027;-72
2021/09/22 02:35:17;;;;;;;30.45;20.50;;;7.10;99.90;;;;;;4991520;28;20027;-73
2021/09/22 02:37:43;;;;;;;32.08;21.08;;;7.20;99.90;;;;;;4991963;28;20030;-72
2021/09/22 02:40:14;;;;;;;30.83;21.90;;;7.20;99.90;;;;;;4992573;28;20023;-72
2021/09/22 02:42:41;;;;;;;33.70;21.83;;;7.30;99.90;;;;;;4993351;28;20029;-73
2021/09/22 02:45:08;;;;;;;35.25;23.05;;;7.30;99.90;;;;;;4992141;28;20054;-72
2021/09/22 02:47:33;;;;;;;34.42;21.63;;;7.30;99.90;;;;;;4993165;28;20381;-72
2021/09/22 02:49:59;;;;;;;34.55;22.27;;;7.30;99.90;;;;;;4991639;28;20023;-73
2021/09/22 02:52:25;;;;;;;34.42;21.48;;;7.20;99.90;;;;;;4977117;28;20589;-73
2021/09/22 02:54:50;;;;;;;38.55;23.00;;;7.20;99.90;;;;;;4972949;28;20022;-74
2021/09/22 02:57:16;;;;;;;34.47;21.92;;;7.20;99.90;;;;;;4973798;28;20054;-73
2021/09/22 02:59:42;;;;;;;32.08;21.77;;;7.10;99.90;;;;;;4973492;28;20512;-72
2021/09/22 03:02:07;;;;;;;35.13;21.35;;;7.10;99.90;;;;;;4973188;28;20656;-73
2021/09/22 03:04:33;;;;;;;31.42;20.98;;;7.00;99.90;;;;;;4972690;28;20038;-73
2021/09/22 03:06:59;;;;;;;31.40;21.33;;;7.00;99.90;;;;;;4973495;28;20033;-74
2021/09/22 03:09:24;;;;;;;33.75;20.60;;;7.10;99.90;;;;;;4972930;28;20062;-73
2021/09/22 03:11:51;;;;;;;36.45;22.50;;;7.00;99.90;;;;;;4972232;28;20122;-73
2021/09/22 03:14:17;;;;;;;30.58;20.52;;;7.00;99.90;;;;;;4972776;28;20495;-74
2021/09/22 03:16:43;;;;;;;32.08;21.35;;;7.00;99.90;;;;;;4971810;28;20544;-74
2021/09/22 03:19:08;;;;;;;36.95;21.27;;;7.00;99.90;;;;;;4971796;28;20118;-72
2021/09/22 03:21:34;;;;;;;34.05;21.75;;;7.00;99.90;;;;;;4981205;28;20022;-73
2021/09/22 03:24:00;;;;;;;32.40;22.02;;;7.00;99.90;;;;;;4992924;28;20389;-72
2021/09/22 03:26:26;;;;;;;35.42;22.13;;;7.00;99.90;;;;;;4991788;28;20026;-71
2021/09/22 03:28:51;;;;;;;33.53;22.02;;;6.90;99.90;;;;;;4992377;28;20029;-71
2021/09/22 03:31:17;;;;;;;32.92;21.20;;;7.00;99.90;;;;;;4991997;28;20112;-72
2021/09/22 03:33:43;;;;;;;35.25;21.42;;;6.90;99.90;;;;;;4992574;28;20026;-72
2021/09/22 03:36:10;;;;;;;35.72;22.20;;;6.90;99.90;;;;;;4991791;28;20069;-71
2021/09/22 03:38:36;;;;;;;33.08;21.15;;;6.80;99.90;;;;;;4992444;28;20022;-72
2021/09/22 03:41:01;;;;;;;37.65;22.58;;;6.80;99.90;;;;;;4994467;28;20023;-74
2021/09/22 03:43:27;;;;;;;35.97;21.85;;;6.80;99.90;;;;;;5003176;28;20031;-73
2021/09/22 03:45:53;;;;;;;35.85;21.55;;;6.80;99.90;;;;;;4991226;28;20096;-71
2021/09/22 03:48:19;;;;;;;34.22;20.83;;;6.80;99.90;;;;;;4992153;28;20038;-72
2021/09/22 03:50:48;;;;;;;32.67;21.80;;;6.80;99.90;;;;;;4992443;28;20125;-73
2021/09/22 03:53:17;;;;;;;39.25;20.23;;;6.80;99.90;;;;;;4996593;28;20105;-73
2021/09/22 03:55:43;;;;;;;38.17;22.27;;;6.80;99.90;;;;;;4991827;28;20018;-73
2021/09/22 03:58:10;;;;;;;36.97;22.30;;;6.80;99.90;;;;;;4992016;28;20105;-73
2021/09/22 04:00:36;;;;;;;32.38;20.98;;;6.80;99.90;;;;;;4991546;28;20060;-73
2021/09/22 04:03:02;;;;;;;40.65;22.88;;;6.70;99.90;;;;;;4989941;28;20034;-74
2021/09/22 04:05:27;;;;;;;32.88;21.77;;;6.70;99.90;;;;;;4991012;28;20046;-72
2021/09/22 04:07:53;;;;;;;35.47;20.73;;;6.70;99.90;;;;;;4992092;28;20026;-73
2021/09/22 04:10:19;;;;;;;37.08;22.92;;;6.70;99.90;;;;;;4991570;28;20458;-73
2021/09/22 04:12:44;;;;;;;34.30;20.55;;;6.70;99.90;;;;;;4990559;28;20524;-73
2021/09/22 04:15:10;;;;;;;40.17;21.45;;;6.70;99.90;;;;;;4990760;28;20061;-72
2021/09/22 04:17:36;;;;;;;37.95;23.25;;;6.70;99.90;;;;;;4991280;28;20030;-72
2021/09/22 04:20:04;;;;;;;39.17;23.33;;;6.60;99.90;;;;;;4991264;28;20098;-73
2021/09/22 04:22:29;;;;;;;43.30;23.67;;;6.70;99.90;;;;;;4990822;28;20031;-73
2021/09/22 04:24:55;;;;;;;39.40;24.45;;;6.70;99.90;;;;;;4991092;28;20037;-73
2021/09/22 04:27:21;;;;;;;39.08;22.65;;;6.70;99.90;;;;;;4991812;28;20030;-72
2021/09/22 04:29:46;;;;;;;36.28;22.35;;;6.60;99.90;;;;;;4991061;28;20023;-73
2021/09/22 04:32:12;;;;;;;37.80;23.42;;;6.70;99.90;;;;;;4990146;28;20030;-72
2021/09/22 04:34:38;;;;;;;35.75;20.90;;;6.70;99.90;;;;;;4992625;28;20030;-73
2021/09/22 04:37:03;;;;;;;33.65;21.88;;;6.60;99.90;;;;;;4991990;28;20431;-73
2021/09/22 04:39:29;;;;;;;33.33;21.25;;;6.70;99.90;;;;;;4991264;28;20026;-74
2021/09/22 04:41:55;;;;;;;37.90;22.10;;;6.60;99.90;;;;;;4991384;28;20031;-72
2021/09/22 04:44:20;;;;;;;37.67;21.75;;;6.60;99.90;;;;;;4989647;28;20034;-72
2021/09/22 04:46:46;;;;;;;34.72;21.23;;;6.50;99.90;;;;;;4991086;28;20027;-74
2021/09/22 04:49:12;;;;;;;32.88;21.05;;;6.60;99.90;;;;;;4991091;28;20101;-72
2021/09/22 04:51:37;;;;;;;32.90;21.77;;;6.50;99.90;;;;;;4981658;28;20580;-73
2021/09/22 04:54:03;;;;;;;38.03;21.65;;;6.60;99.90;;;;;;4972030;28;20023;-72
2021/09/22 04:56:29;;;;;;;34.95;21.45;;;6.60;99.90;;;;;;4971513;28;20700;-75
2021/09/22 04:58:54;;;;;;;42.03;23.42;;;6.60;99.90;;;;;;4970665;28;20469;-72
2021/09/22 05:01:20;;;;;;;35.97;22.02;;;6.60;99.90;;;;;;4971449;28;20031;-73
2021/09/22 05:03:45;;;;;;;35.97;22.63;;;6.60;99.90;;;;;;4980275;28;20034;-73
2021/09/22 05:06:11;;;;;;;38.88;22.17;;;6.70;99.90;;;;;;4990345;28;20026;-73
2021/09/22 05:08:37;;;;;;;40.28;22.92;;;6.80;99.90;;;;;;4991141;28;20037;-72
2021/09/22 05:11:02;;;;;;;36.95;21.30;;;6.80;99.90;;;;;;4991363;28;20061;-73
2021/09/22 05:13:28;;;;;;;36.08;23.10;;;6.90;99.90;;;;;;4991309;28;20027;-73
2021/09/22 05:15:54;;;;;;;41.13;23.92;;;6.90;99.90;;;;;;4988947;28;20030;-73
2021/09/22 05:18:20;;;;;;;42.72;24.55;;;6.90;99.90;;;;;;4989999;28;20027;-77
2021/09/22 05:20:45;;;;;;;44.92;24.40;;;6.90;99.90;;;;;;4980971;28;20034;-78
2021/09/22 05:23:11;;;;;;;44.42;24.55;;;7.00;99.90;;;;;;4980918;28;20030;-79
2021/09/22 05:25:37;;;;;;;47.60;26.48;;;7.20;99.90;;;;;;4976147;28;20027;-79
2021/09/22 05:28:03;;;;;;;49.92;26.83;;;7.30;99.90;;;;;;5009291;28;20034;-79
2021/09/22 05:30:29;;;;;;;49.72;27.83;;;7.40;99.90;;;;;;5013217;28;20037;-80
2021/09/22 05:32:55;;;;;;;45.80;27.52;;;7.30;99.90;;;;;;5014653;28;20026;-80
2021/09/22 05:35:20;;;;;;;44.30;26.40;;;7.40;99.90;;;;;;5013905;28;20105;-79
2021/09/22 05:37:46;;;;;;;30.98;20.48;;;7.40;99.90;;;;;;5011286;28;20026;-79
2021/09/22 05:40:12;;;;;;;34.25;21.92;;;7.10;99.90;;;;;;4994265;28;20034;-79
2021/09/22 05:42:38;;;;;;;32.65;22.02;;;7.10;99.90;;;;;;4993439;28;20034;-79
2021/09/22 05:45:04;;;;;;;32.20;22.23;;;7.10;99.90;;;;;;4993037;28;20120;-79
2021/09/22 05:47:30;;;;;;;34.28;22.35;;;7.10;99.90;;;;;;4994915;28;20033;-78
2021/09/22 05:49:56;;;;;;;35.05;22.40;;;7.10;99.90;;;;;;4993768;28;20038;-79
2021/09/22 05:52:22;;;;;;;38.53;23.33;;;7.20;99.90;;;;;;4994394;28;20038;-79
2021/09/22 05:54:48;;;;;;;35.95;24.10;;;7.40;99.90;;;;;;4994075;28;20018;-79
2021/09/22 05:57:14;;;;;;;32.65;22.48;;;7.50;99.90;;;;;;4994920;28;20101;-78
2021/09/22 05:59:40;;;;;;;32.45;20.70;;;7.50;99.90;;;;;;4994795;28;20473;-79
2021/09/22 06:02:07;;;;;;;29.00;20.67;;;7.40;99.90;;;;;;4992984;28;20030;-80
2021/09/22 06:04:33;;;;;;;27.40;20.27;;;7.50;99.90;;;;;;4994634;28;20524;-81
2021/09/22 06:06:59;;;;;;;31.90;21.77;;;7.60;99.90;;;;;;4995598;28;20030;-79
2021/09/22 06:09:24;;;;;;;32.55;21.08;;;7.70;99.90;;;;;;4994102;28;20041;-78
2021/09/22 06:11:50;;;;;;;34.83;22.75;;;7.90;99.90;;;;;;4995397;28;20030;-80
2021/09/22 06:14:16;;;;;;;34.88;21.35;;;7.90;99.90;;;;;;4995581;28;20093;-80
2021/09/22 06:16:41;;;;;;;31.00;19.98;;;7.50;99.90;;;;;;4995098;28;20477;-80
2021/09/22 06:19:09;;;;;;;28.88;20.02;;;7.20;99.90;;;;;;4995538;28;20469;-79
2021/09/22 06:21:38;;;;;;;33.55;21.10;;;7.20;99.90;;;;;;4992121;28;20030;-79
2021/09/22 06:24:05;;;;;;;31.55;20.48;;;7.20;99.90;;;;;;4990232;28;20034;-80
2021/09/22 06:26:31;;;;;;;30.83;21.42;;;7.40;99.90;;;;;;4975995;28;20077;-80
2021/09/22 06:28:56;;;;;;;29.95;21.23;;;7.70;99.90;;;;;;4977512;28;20385;-79
2021/09/22 06:31:22;;;;;;;31.55;20.35;;;7.90;99.90;;;;;;4976611;28;20031;-80
2021/09/22 06:33:48;;;;;;;30.00;20.77;;;7.90;99.90;;;;;;4985881;28;20027;-81
2021/09/22 06:36:14;;;;;;;31.33;20.50;;;7.90;99.90;;;;;;4990121;28;20023;-82
2021/09/22 06:38:40;;;;;;;29.10;20.42;;;8.00;99.90;;;;;;4988082;28;20026;-79
2021/09/22 06:41:06;;;;;;;24.98;17.60;;;8.30;99.90;;;;;;4988344;28;20036;-79
2021/09/22 06:43:32;;;;;;;22.35;16.67;;;8.10;99.90;;;;;;4989384;28;20031;-79
2021/09/22 06:45:58;;;;;;;26.00;19.13;;;7.80;99.90;;;;;;4987713;28;20038;-78
2021/09/22 06:48:24;;;;;;;25.20;18.52;;;8.00;99.90;;;;;;4982046;28;20031;-79
2021/09/22 06:50:50;;;;;;;27.25;18.33;;;8.30;99.90;;;;;;4974960;28;20019;-79
2021/09/22 06:53:15;;;;;;;22.08;16.15;;;8.50;99.90;;;;;;4993205;28;20022;-79
2021/09/22 06:55:41;;;;;;;24.52;16.77;;;8.30;99.90;;;;;;5007796;28;20045;-81
2021/09/22 06:58:07;;;;;;;21.70;16.00;;;8.40;99.90;;;;;;4995806;28;20033;-81
2021/09/22 07:00:35;;;;;;;19.38;15.25;;;8.60;99.90;;;;;;4995944;28;20055;-81
2021/09/22 07:03:02;;;;;;;21.95;15.00;;;8.50;99.90;;;;;;4994968;28;20077;-79
2021/09/22 07:05:28;;;;;;;18.92;14.98;;;8.40;99.90;;;;;;4994176;28;20062;-80
2021/09/22 07:07:54;;;;;;;18.02;14.95;;;8.30;99.90;;;;;;4993250;28;20037;-79
2021/09/22 07:10:20;;;;;;;18.58;14.88;;;8.20;99.90;;;;;;4998258;28;20030;-79
2021/09/22 07:12:48;;;;;;;18.48;13.48;;;8.40;99.90;;;;;;5001279;28;20032;-80
2021/09/22 07:15:14;;;;;;;18.90;15.10;;;8.20;99.90;;;;;;4996303;28;20014;-80
2021/09/22 07:17:39;;;;;;;20.10;15.40;;;8.70;99.90;;;;;;4993799;28;20033;-80
2021/09/22 07:20:06;;;;;;;20.42;13.88;;;9.10;99.90;;;;;;4994015;28;20067;-80
2021/09/22 07:22:32;;;;;;;17.60;14.05;;;9.20;99.90;;;;;;4993624;28;20030;-80
2021/09/22 07:24:58;;;;;;;15.68;13.60;;;9.30;99.90;;;;;;4992810;28;20030;-79
2021/09/22 07:27:23;;;;;;;19.08;14.73;;;9.50;99.90;;;;;;4994978;28;20041;-79
2021/09/22 07:29:49;;;;;;;15.85;13.40;;;9.70;99.90;;;;;;4992624;28;20046;-80
2021/09/22 07:32:15;;;;;;;15.85;13.73;;;9.70;99.90;;;;;;5003390;22;20046;-75
2021/09/22 07:34:41;;;;;;;16.35;13.38;;;9.70;99.90;;;;;;4978768;28;20026;-75
2021/09/22 07:37:09;;;;;;;15.32;13.68;;;9.00;99.90;;;;;;4988006;28;20037;-74
2021/09/22 07:39:35;;;;;;;15.25;12.73;;;9.00;99.90;;;;;;4990496;28;20108;-74
2021/09/22 07:42:01;;;;;;;13.57;12.05;;;9.00;99.90;;;;;;4980922;28;20489;-75
2021/09/22 07:44:27;;;;;;;15.85;12.98;;;9.10;99.90;;;;;;4971909;28;20113;-75
2021/09/22 07:46:53;;;;;;;13.75;12.13;;;9.40;99.90;;;;;;4971108;28;20174;-75
2021/09/22 07:49:18;;;;;;;14.68;11.82;;;9.30;99.90;;;;;;4972772;28;20052;-75
2021/09/22 07:51:44;;;;;;;12.85;11.50;;;9.30;99.90;;;;;;4971969;28;20055;-75
2021/09/22 07:54:10;;;;;;;13.80;11.35;;;9.20;99.90;;;;;;4972271;28;20037;-75
2021/09/22 07:56:36;;;;;;;12.75;11.00;;;9.50;99.90;;;;;;4972087;28;20031;-75
2021/09/22 07:59:01;;;;;;;14.02;10.60;;;9.50;99.90;;;;;;4970965;28;20030;-75
2021/09/22 08:01:28;;;;;;;11.80;10.38;;;9.70;99.90;;;;;;4972280;28;20507;-74
2021/09/22 08:03:53;;;;;;;12.05;10.82;;;9.50;99.90;;;;;;4989871;28;20033;-74
2021/09/22 08:06:19;;;;;;;12.63;11.27;;;9.60;99.90;;;;;;4991008;28;20109;-75
2021/09/22 08:08:45;;;;;;;12.18;10.30;;;9.70;99.90;;;;;;4991721;28;20484;-75
2021/09/22 08:11:12;;;;;;;10.73;9.63;;;9.90;99.90;;;;;;4991740;28;20050;-74
2021/09/22 08:13:38;;;;;;;15.10;11.00;;;10.20;99.90;;;;;;4991748;28;20022;-74
2021/09/22 08:16:04;;;;;;;10.90;9.80;;;10.40;99.90;;;;;;4994827;28;20014;-75
2021/09/22 08:18:30;;;;;;;11.15;10.10;;;10.10;99.90;;;;;;4992178;28;20481;-75
2021/09/22 08:20:56;;;;;;;10.90;9.68;;;10.60;99.90;;;;;;4992040;28;20049;-74
2021/09/22 08:23:22;;;;;;;10.98;9.95;;;10.70;99.90;;;;;;4991287;28;20026;-75
2021/09/22 08:25:48;;;;;;;9.68;8.73;;;10.70;99.90;;;;;;4990805;28;20105;-75
2021/09/22 08:28:14;;;;;;;10.05;9.15;;;11.50;99.90;;;;;;4991226;28;20125;-73
2021/09/22 08:30:40;;;;;;;12.50;9.15;;;12.10;99.90;;;;;;4991938;28;20026;-72
2021/09/22 08:33:06;;;;;;;9.88;8.88;;;12.70;99.90;;;;;;4990525;28;20034;-72
2021/09/22 08:35:32;;;;;;;9.68;8.77;;;13.30;99.90;;;;;;4990506;28;20115;-72
2021/09/22 08:37:57;;;;;;;9.88;8.88;;;13.00;99.90;;;;;;4989846;28;20022;-72
2021/09/22 08:40:23;;;;;;;9.82;8.90;;;12.40;99.90;;;;;;4990858;28;20025;-73
2021/09/22 08:42:50;;;;;;;11.13;8.65;;;12.80;99.90;;;;;;4989744;28;20077;-73
2021/09/22 08:45:16;;;;;;;9.73;8.82;;;13.00;99.90;;;;;;4990557;28;20034;-72
2021/09/22 08:47:46;;;;;;;9.57;8.68;;;13.60;99.90;;;;;;4990389;28;20034;-73
2021/09/22 08:50:18;;;;;;;8.88;8.07;;;13.50;99.90;;;;;;4991049;28;20056;-73
2021/09/22 08:52:45;;;;;;;9.73;8.82;;;13.90;99.90;;;;;;4990893;28;20022;-73
2021/09/22 08:55:12;;;;;;;8.98;8.05;;;14.10;99.90;;;;;;4989939;28;20022;-73
2021/09/22 08:57:38;;;;;;;10.05;9.05;;;14.30;99.90;;;;;;4990868;28;20053;-73
2021/09/22 09:00:08;;;;;;;9.82;8.82;;;14.40;99.90;;;;;;4990317;28;20124;-73
2021/09/22 09:02:39;;;;;;;12.20;9.60;;;15.30;99.90;;;;;;4990700;28;20030;-72
2021/09/22 09:05:19;;;;;;;15.05;9.95;;;15.20;99.90;;;;;;4993676;28;20650;-72
2021/09/22 09:07:54;;;;;;;10.65;8.73;;;16.10;99.90;;;;;;4994953;28;20805;-72
2021/09/22 09:10:25;;;;;;;9.68;8.77;;;17.10;99.90;;;;;;4994695;28;20381;-72
2021/09/22 09:13:17;;;;;;;10.17;8.87;;;17.60;99.90;;;;;;4994580;28;20096;-71
2021/09/22 09:15:46;;;;;;;10.23;9.27;;;16.50;99.90;;;;;;4990383;28;20038;-74
2021/09/22 09:18:22;;;;;;;9.63;8.02;;;16.30;99.90;;;;;;4994158;28;20033;-72
2021/09/22 09:20:50;;;;;;;10.63;9.10;;;17.10;99.90;;;;;;4994577;28;20029;-73
2021/09/22 09:23:19;;;;;;;10.52;8.20;;;17.40;99.90;;;;;;4992989;28;20023;-72
2021/09/22 09:25:45;;;;;;;10.25;8.23;;;18.30;99.90;;;;;;4993110;28;20030;-75
2021/09/22 09:28:21;;;;;;;9.80;7.93;;;18.70;99.90;;;;;;4994589;28;20122;-75
2021/09/22 09:30:49;;;;;;;12.18;8.25;;;19.40;99.90;;;;;;4994149;28;20480;-75
2021/09/22 09:33:32;;;;;;;8.13;7.28;;;19.30;99.90;;;;;;4994135;28;20038;-75
2021/09/22 09:36:00;;;;;;;11.18;7.35;;;19.90;99.90;;;;;;4993376;28;20499;-75
2021/09/22 09:38:31;;;;;;;7.72;6.32;;;20.40;99.90;;;;;;4993762;28;20089;-75
2021/09/22 09:40:57;;;;;;;9.80;7.00;;;20.90;99.90;;;;;;4994084;28;20520;-75
2021/09/22 09:43:23;;;;;;;7.10;6.50;;;20.50;99.90;;;;;;4994021;28;20391;-73
2021/09/22 09:45:48;;;;;;;7.93;7.13;;;20.80;99.90;;;;;;4993177;28;20030;-74
2021/09/22 09:48:17;;;;;;;9.82;6.35;;;21.80;99.90;;;;;;4993102;28;20469;-74
2021/09/22 09:50:46;;;;;;;8.77;5.78;;;20.90;97.30;;;;;;4992618;28;20026;-75
2021/09/22 09:53:29;;;;;;;11.13;6.40;;;20.60;99.40;;;;;;4993461;28;20014;-75
2021/09/22 09:55:57;;;;;;;6.63;5.20;;;20.90;98.40;;;;;;4992865;28;20108;-75
2021/09/22 09:58:27;;;;;;;4.72;4.32;;;20.80;97.20;;;;;;4994156;28;20033;-75
2021/09/22 10:00:54;;;;;;;4.97;4.57;;;21.10;97.30;;;;;;4993769;28;20030;-75
2021/09/22 10:03:23;;;;;;;5.60;4.93;;;20.70;98.10;;;;;;4992984;28;20085;-75
2021/09/22 10:05:51;;;;;;;5.05;4.60;;;21.50;97.20;;;;;;4992620;28;20105;-73
2021/09/22 10:08:20;;;;;;;6.93;4.60;;;21.40;95.70;;;;;;4991886;28;20034;-72
2021/09/22 10:10:49;;;;;;;5.00;4.15;;;21.20;96.00;;;;;;4993067;28;20030;-72
2021/09/22 10:13:16;;;;;;;4.28;3.70;;;21.00;97.40;;;;;;4993631;28;20030;-73
2021/09/22 10:15:44;;;;;;;4.90;3.65;;;21.90;96.10;;;;;;4991817;28;20034;-71
2021/09/22 10:18:11;;;;;;;4.13;3.72;;;21.90;94.80;;;;;;4992788;28;20102;-72
2021/09/22 10:20:43;;;;;;;4.95;3.50;;;21.90;95.60;;;;;;4993139;28;20254;-73
2021/09/22 10:23:10;;;;;;;4.30;3.90;;;22.80;92.70;;;;;;4993450;28;20058;-72
2021/09/22 10:25:36;;;;;;;3.38;2.97;;;24.20;91.40;;;;;;4992696;28;20038;-74
2021/09/22 10:28:03;;;;;;;2.72;2.58;;;23.70;90.60;;;;;;4993469;28;20480;-73
2021/09/22 10:30:41;;;;;;;3.80;3.40;;;22.80;91.30;;;;;;4993080;28;20053;-74
2021/09/22 10:33:30;;;;;;;3.08;2.80;;;22.70;91.50;;;;;;4992602;28;20038;-73
2021/09/22 10:36:01;;;;;;;2.85;2.60;;;23.10;89.70;;;;;;4992339;28;20015;-74
2021/09/22 10:38:26;;;;;;;2.95;2.63;;;23.00;90.60;;;;;;4992886;28;20517;-74
2021/09/22 10:41:00;;;;;;;2.47;2.28;;;23.50;90.70;;;;;;4992359;28;20117;-74
2021/09/22 10:43:35;;;;;;;2.85;2.60;;;24.40;88.80;;;;;;4992812;28;20026;-74
2021/09/22 10:46:10;;;;;;;4.05;2.70;;;25.00;84.80;;;;;;4992151;28;20019;-74
2021/09/22 10:48:37;;;;;;;4.35;2.75;;;26.00;80.50;;;;;;4992461;28;20085;-74
2021/09/22 10:51:05;;;;;;;3.58;2.20;;;24.40;84.50;;;;;;4992795;28;20022;-74
2021/09/22 10:53:35;;;;;;;2.70;2.50;;;24.60;87.20;;;;;;4992076;28;20026;-73
2021/09/22 10:56:20;;;;;;;2.17;2.08;;;26.20;82.00;;;;;;4991654;28;20030;-74
2021/09/22 10:58:51;;;;;;;2.63;2.38;;;25.90;77.30;;;;;;4992497;28;20026;-74
2021/09/22 11:01:32;;;;;;;2.47;2.20;;;24.50;80.60;;;;;;4992729;28;20027;-74
2021/09/22 11:03:58;;;;;;;1.92;1.83;;;24.50;82.00;;;;;;4991866;28;20019;-72
2021/09/22 11:06:46;;;;;;;2.65;2.10;;;24.60;85.10;;;;;;4989805;28;20046;-73
2021/09/22 11:09:21;;;;;;;2.67;2.50;;;23.90;80.70;;;;;;4991727;28;20098;-74
2021/09/22 11:11:55;;;;;;;2.35;2.15;;;24.50;84.20;;;;;;4992447;28;20022;-74
2021/09/22 11:14:30;;;;;;;2.40;2.20;;;25.50;83.50;;;;;;4990512;28;20034;-73
2021/09/22 11:16:59;;;;;;;2.83;2.10;;;25.60;77.90;;;;;;4992034;28;20027;-74
2021/09/22 11:19:26;;;;;;;3.00;2.13;;;26.10;76.20;;;;;;4992001;28;20022;-74
2021/09/22 11:21:52;;;;;;;2.70;2.17;;;26.40;77.20;;;;;;4992311;28;20081;-74
2021/09/22 11:24:21;;;;;;;1.83;1.63;;;27.80;74.10;;;;;;4991459;28;20030;-74
2021/09/22 11:26:58;;;;;;;2.38;2.17;;;26.90;70.70;;;;;;4990896;28;20022;-74
2021/09/22 11:29:39;;;;;;;3.63;2.20;;;26.10;75.90;;;;;;4991784;28;20022;-74
2021/09/22 11:32:27;;;;;;;4.77;2.30;;;25.60;73.80;;;;;;4990527;28;20034;-73
2021/09/22 11:35:00;;;;;;;1.85;1.70;;;25.80;78.70;;;;;;4991174;28;20296;-74
2021/09/22 11:37:53;;;;;;;3.50;2.25;;;26.40;75.30;;;;;;4992168;28;20108;-74
2021/09/22 11:40:26;;;;;;;2.15;2.05;;;26.30;75.00;;;;;;4990035;28;20062;-74
2021/09/22 11:43:06;;;;;;;1.98;1.88;;;27.50;72.70;;;;;;4990783;28;20033;-74
2021/09/22 11:45:43;;;;;;;1.85;1.75;;;26.80;70.80;;;;;;4991351;28;20033;-74
2021/09/22 11:48:11;;;;;;;3.45;1.80;;;27.80;72.80;;;;;;4991533;28;20101;-74
2021/09/22 11:50:43;;;;;;;2.25;1.60;;;27.80;70.90;;;;;;4991657;28;20036;-74
2021/09/22 11:53:09;;;;;;;;;;;27.00;71.40;;;;;;4992104;28;20034;-74
2021/09/22 11:55:35;;;;;;;2.70;1.60;;;27.30;69.30;;;;;;4991070;28;19914;-74
2021/09/22 11:58:05;;;;;;;1.60;1.50;;;26.70;72.20;;;;;;4991563;28;20473;-74
2021/09/22 12:00:30;;;;;;;8.43;1.70;;;28.70;71.90;;;;;;4991382;28;20026;-74
2021/09/22 12:02:56;;;;;;;4.30;1.52;;;29.50;69.30;;;;;;4991132;28;20037;-74
2021/09/22 12:05:22;;;;;;;2.35;1.40;;;28.50;66.60;;;;;;4992511;28;20027;-79
2021/09/22 12:07:54;;;;;;;1.00;1.00;;;27.00;69.20;;;;;;4994419;28;20022;-76
2021/09/22 12:10:21;;;;;;;;;;;27.10;69.90;;;;;;4990408;28;20022;-74
2021/09/22 12:12:46;;;;;;;1.70;1.17;;;26.70;69.90;;;;;;4992254;28;19934;-79
2021/09/22 12:15:14;;;;;;;1.35;1.25;;;26.90;70.10;;;;;;4992796;28;20022;-81
2021/09/22 12:17:41;;;;;;;1.63;1.52;;;27.30;68.90;;;;;;4993958;28;20032;-80
2021/09/22 12:20:13;;;;;;;1.55;1.42;;;27.40;69.10;;;;;;4994576;28;20556;-80
2021/09/22 12:22:39;;;;;;;;;;;26.60;70.80;;;;;;4994596;28;20096;-81
2021/09/22 12:25:08;;;;;;;3.45;1.42;;;26.30;71.80;;;;;;4994075;28;19910;-80
2021/09/22 12:27:34;;;;;;;2.30;1.90;;;28.10;72.50;;;;;;4995014;28;20022;-80
2021/09/22 12:30:04;;;;;;;1.88;1.73;;;27.60;67.30;;;;;;4993127;28;20026;-78
2021/09/22 12:32:32;;;;;;;2.95;1.50;;;26.90;68.40;;;;;;4992268;28;20029;-79
2021/09/22 12:35:02;;;;;;;1.58;1.48;;;26.80;72.40;;;;;;4990244;28;20042;-78
2021/09/22 12:37:30;;;;;;;1.85;1.70;;;27.20;70.30;;;;;;4994160;28;20026;-79
2021/09/22 12:39:57;;;;;;;2.15;1.42;;;26.50;71.90;;;;;;4998336;28;20041;-78
2021/09/22 12:42:23;;;;;;;2.25;1.40;;;26.10;71.10;;;;;;4997809;28;20030;-78